Buoy 32622

sailwx.info

Track history (hours):
 
Tides and Currents Weather Stations Pressure Air Temp Water Temp Dewpoint Dewpoint Depression Visibility Wind Speed Wind Dir Waves Ship Positions

Aadnyj

Last reported at 2015-Apr-02 03:02 UTC. Time now 2015-Apr-02 04:26 UTC.
Position S 21°50' W 164°21'.

Length 56 m.

Type: Towing. MMSI: 413600286.

Date/timePositionNaut miles runAvg speedWind from/ knotsBaromVisibWave heightAir tempDewpointWater temp
2015-Apr-02 03:02S 21°50' W 164°21'0 0.0
2015-Apr-01 20:50S 21°50' W 164°21'1 0.4
2015-Apr-01 19:08S 21°50' W 164°22'1 0.6
2015-Apr-01 18:12S 21°50' W 164°22'1 0.4
2015-Apr-01 15:57S 21°50' W 164°21'0 0.0
2015-Apr-01 15:48S 21°50' W 164°21'1 0.9
2015-Apr-01 15:02S 21°50' W 164°21'2 2.1
2015-Apr-01 14:04S 21°48' W 164°22'0 0.0
2015-Apr-01 12:51S 21°48' W 164°22'1 0.4
2015-Apr-01 11:06S 21°49' W 164°21'0 0.0
2015-Apr-01 09:38S 21°49' W 164°21'1 4.2
2015-Apr-01 09:30S 21°48' W 164°22'0 0.0
2015-Apr-01 08:45S 21°48' W 164°22'2 2.6
2015-Apr-01 07:57S 21°48' W 164°20'0 0.0
2015-Apr-01 06:58S 21°48' W 164°20'0 0.0
2015-Apr-01 05:11S 21°48' W 164°20'1 0.4
2015-Apr-01 03:55S 21°48' W 164°20'4 0.3
2015-Mar-31 14:15S 21°49' W 164°16'1 1.0
2015-Mar-31 12:56S 21°49' W 164°18'0 0.1
2015-Mar-31 11:15S 21°49' W 164°18'1 0.5
2015-Mar-31 09:04S 21°50' W 164°18'1 1.3
2015-Mar-31 08:16S 21°51' W 164°20'1 0.7
2015-Mar-31 07:23S 21°50' W 164°20'2 0.6
2015-Mar-31 04:43S 21°49' W 164°19'117.8
2015-Mar-31 04:39S 21°48' W 164°21'0 0.0
2015-Mar-31 04:15S 21°48' W 164°21'0 0.0
2015-Mar-31 04:06S 21°48' W 164°21'1 0.9
2015-Mar-31 03:02S 21°48' W 164°20'0 0.3
2015-Mar-31 01:47S 21°47' W 164°20'0 0.7
2015-Mar-31 01:42S 21°47' W 164°19'1 0.9
2015-Mar-31 00:04S 21°46' W 164°19'1 0.4
2015-Mar-30 21:29S 21°45' W 164°18'1 0.7
2015-Mar-30 20:33S 21°45' W 164°18'1 1.0
2015-Mar-30 19:52S 21°45' W 164°17'0 0.8
2015-Mar-30 19:48S 21°45' W 164°17'1 0.6
2015-Mar-30 18:57S 21°45' W 164°17'0 6.1
2015-Mar-30 18:54S 21°44' W 164°17'1 0.5
2015-Mar-30 17:01S 21°44' W 164°16'1 0.8
2015-Mar-30 16:05S 21°44' W 164°15'0 1.2
2015-Mar-30 15:50S 21°44' W 164°15'1 0.6
2015-Mar-30 14:49S 21°45' W 164°15'0 0.4
2015-Mar-30 14:28S 21°45' W 164°15'1 0.5
2015-Mar-30 13:13S 21°45' W 164°14'0 0.8
2015-Mar-30 13:09S 21°45' W 164°14'0 2.3
2015-Mar-30 13:01S 21°45' W 164°14'0 0.0
2015-Mar-30 11:29S 21°45' W 164°14'1 0.3
2015-Mar-30 08:40S 21°46' W 164°15'0 3.3
2015-Mar-30 08:39S 21°46' W 164°15'0 0.4
2015-Mar-30 07:46S 21°46' W 164°15'1 0.3
2015-Mar-30 04:51S 21°47' W 164°14'111.3
2015-Mar-30 04:46S 21°46' W 164°15'0 0.0
2015-Mar-30 04:36S 21°46' W 164°15'1 0.6
2015-Mar-30 03:13S 21°47' W 164°15'1 5.6
2015-Mar-30 03:04S 21°46' W 164°15'1 6.4
2015-Mar-30 02:56S 21°47' W 164°15'0 0.0
2015-Mar-30 01:57S 21°47' W 164°15'1 9.2
2015-Mar-30 01:53S 21°47' W 164°15'0 0.0
2015-Mar-30 00:15S 21°47' W 164°15'1 0.4
2015-Mar-29 21:51S 21°46' W 164°16'1 9.6
2015-Mar-29 21:45S 21°45' W 164°16'0 0.0
2015-Mar-29 20:52S 21°45' W 164°16'0 0.1
2015-Mar-29 20:13S 21°45' W 164°16'0 0.0
2015-Mar-29 20:07S 21°45' W 164°16'0 0.1
2015-Mar-29 19:16S 21°45' W 164°16'0 1.7
2015-Mar-29 19:14S 21°45' W 164°16'0 0.0
2015-Mar-29 19:07S 21°45' W 164°16'1 0.8
2015-Mar-29 17:31S 21°44' W 164°16'1 0.5
2015-Mar-29 16:22S 21°43' W 164°15'1 1.2
2015-Mar-29 15:51S 21°43' W 164°15'1 0.6
2015-Mar-29 14:39S 21°43' W 164°14'1 0.9
2015-Mar-29 13:24S 21°43' W 164°13'0 1.2
2015-Mar-29 13:16S 21°43' W 164°13'1 0.4
2015-Mar-29 11:40S 21°43' W 164°12'1 0.5
2015-Mar-29 09:47S 21°43' W 164°11'1 1.0
2015-Mar-29 08:59S 21°43' W 164°11'0 0.0
2015-Mar-29 08:58S 21°43' W 164°11'0 0.1
2015-Mar-29 08:06S 21°43' W 164°11'2 2.3
2015-Mar-29 07:14S 21°44' W 164°09'0 0.0
2015-Mar-29 05:11S 21°44' W 164°09'0 2.7
2015-Mar-29 05:07S 21°44' W 164°08'0 0.0
2015-Mar-29 05:02S 21°44' W 164°08'1 0.8
2015-Mar-29 03:27S 21°45' W 164°07'1 1.0
2015-Mar-29 02:08S 21°46' W 164°07'0 0.0
2015-Mar-29 02:04S 21°46' W 164°07'2 0.9
2015-Mar-29 00:28S 21°47' W 164°08'0 0.1
2015-Mar-28 20:30S 21°48' W 164°08'010.0
2015-Mar-28 20:29S 21°48' W 164°08'1 0.6
2015-Mar-28 19:36S 21°48' W 164°08'0 0.3
2015-Mar-28 18:03S 21°48' W 164°09'1 0.4
2015-Mar-28 16:30S 21°47' W 164°09'0 0.6
2015-Mar-28 16:24S 21°47' W 164°09'1 0.6
2015-Mar-28 15:02S 21°48' W 164°10'0 0.3
2015-Mar-28 14:51S 21°48' W 164°10'0 0.2
2015-Mar-28 13:30S 21°48' W 164°10'0 0.0
2015-Mar-28 13:29S 21°48' W 164°10'1 0.6
2015-Mar-28 11:53S 21°48' W 164°11'1 0.4
2015-Mar-28 10:07S 21°48' W 164°12'212.9
2015-Mar-28 10:00S 21°47' W 164°13'1 0.9
2015-Mar-28 09:16S 21°47' W 164°12'0 0.0
2015-Mar-28 08:30S 21°47' W 164°12'0 4.5
2015-Mar-28 08:25S 21°47' W 164°13'2 2.6
2015-Mar-28 07:34S 21°46' W 164°15'1 0.3
2015-Mar-28 05:14S 21°45' W 164°15'0 0.3
2015-Mar-28 04:03S 21°45' W 164°15'0 2.4
2015-Mar-28 04:00S 21°45' W 164°15'0 0.0
2015-Mar-28 03:55S 21°45' W 164°15'0 0.3
2015-Mar-28 03:31S 21°45' W 164°16'111.9
2015-Mar-28 03:26S 21°44' W 164°15'0 0.0
2015-Mar-28 02:16S 21°44' W 164°15'0 0.0
2015-Mar-28 02:15S 21°44' W 164°15'0 0.1
2015-Mar-28 00:38S 21°44' W 164°15'0 0.1
2015-Mar-27 20:54S 21°44' W 164°15'0 1.8
2015-Mar-27 20:48S 21°44' W 164°15'1 0.7
2015-Mar-27 19:56S 21°44' W 164°15'0 0.3
2015-Mar-27 19:11S 21°44' W 164°15'0 0.1
2015-Mar-27 18:16S 21°44' W 164°15'0 0.3
2015-Mar-27 17:09S 21°44' W 164°15'0 1.5
2015-Mar-27 16:55S 21°44' W 164°16'0 1.8
2015-Mar-27 16:44S 21°43' W 164°15'0 0.3
2015-Mar-27 15:05S 21°44' W 164°15'0 1.6
2015-Mar-27 15:02S 21°44' W 164°15'1 2.9
2015-Mar-27 14:51S 21°44' W 164°15'0 0.0
2015-Mar-27 13:47S 21°44' W 164°15'1 0.6
2015-Mar-27 12:07S 21°45' W 164°15'0 2.6
2015-Mar-27 12:04S 21°45' W 164°15'1 0.7
2015-Mar-27 10:26S 21°46' W 164°16'2 1.1
2015-Mar-27 08:50S 21°46' W 164°18'0 0.0
2015-Mar-27 08:47S 21°46' W 164°18'0 0.0
2015-Mar-27 08:02S 21°46' W 164°18'1 1.1
2015-Mar-27 07:06S 21°45' W 164°18'2 0.9
2015-Mar-27 05:25S 21°46' W 164°20'2 1.6
2015-Mar-27 04:29S 21°45' W 164°21'0 1.6
2015-Mar-27 04:16S 21°45' W 164°21'013.5
2015-Mar-27 04:14S 21°45' W 164°22'1 0.4
2015-Mar-27 02:27S 21°44' W 164°22'1 0.7
2015-Mar-27 00:51S 21°43' W 164°23'0 0.0
2015-Mar-27 00:49S 21°43' W 164°23'2 0.4
2015-Mar-26 20:17S 21°41' W 164°22'2 0.3
2015-Mar-26 15:13S 21°40' W 164°21'1 0.2
2015-Mar-26 12:15S 21°40' W 164°20'2 0.5
2015-Mar-26 09:10S 21°41' W 164°20'1 9.8
2015-Mar-26 09:05S 21°42' W 164°20'1 0.3
2015-Mar-26 05:01S 21°43' W 164°21'2 2.1
2015-Mar-26 04:02S 21°43' W 164°23'0 0.0
2015-Mar-26 03:59S 21°43' W 164°23'2 2.2
2015-Mar-26 03:03S 21°42' W 164°22'2 2.1
2015-Mar-26 02:15S 21°43' W 164°23'4 0.7
2015-Mar-25 20:37S 21°41' W 164°27'1 0.8
2015-Mar-25 19:55S 21°41' W 164°27'0 0.2
2015-Mar-25 19:01S 21°41' W 164°27'0 3.8
2015-Mar-25 18:58S 21°41' W 164°27'2 1.3
2015-Mar-25 17:06S 21°39' W 164°29'0 0.2
2015-Mar-25 16:16S 21°39' W 164°29'0 0.5
2015-Mar-25 15:28S 21°39' W 164°29'0 0.0
2015-Mar-25 15:24S 21°39' W 164°29'0 0.0
2015-Mar-25 15:16S 21°39' W 164°29'0 0.0
2015-Mar-25 14:36S 21°39' W 164°29'1 1.5
2015-Mar-25 14:09S 21°39' W 164°28'2 1.0
2015-Mar-25 12:25S 21°38' W 164°30'1 4.7
2015-Mar-25 12:16S 21°37' W 164°30'0 0.0
2015-Mar-25 10:15S 21°37' W 164°30'1 0.5
2015-Mar-25 07:50S 21°36' W 164°31'0 0.4
2015-Mar-25 06:55S 21°36' W 164°31'0 0.1
2015-Mar-25 05:49S 21°36' W 164°31'1 0.7
2015-Mar-25 04:13S 21°35' W 164°30'0 0.0
2015-Mar-25 04:09S 21°35' W 164°30'0 1.5
2015-Mar-25 03:57S 21°35' W 164°30'0 4.2
2015-Mar-25 03:54S 21°35' W 164°30'1 2.3
2015-Mar-25 03:29S 21°36' W 164°29'1 1.2
2015-Mar-25 02:50S 21°36' W 164°30'0 0.0
2015-Mar-25 02:29S 21°36' W 164°30'0 0.0
2015-Mar-25 01:11S 21°36' W 164°30'3 0.7
2015-Mar-24 20:51S 21°36' W 164°33'0 0.2
2015-Mar-24 20:10S 21°36' W 164°33'2 0.4
2015-Mar-24 14:59S 21°34' W 164°34'1 0.2
2015-Mar-24 09:01S 21°34' W 164°35'1 0.8
2015-Mar-24 08:10S 21°33' W 164°36'2 0.7
2015-Mar-24 06:00S 21°32' W 164°37'0 0.0
2015-Mar-24 04:28S 21°32' W 164°37'3 0.3
2015-Mar-23 18:58S 21°30' W 164°38'0 0.0
2015-Mar-23 18:53S 21°30' W 164°38'1 0.6
2015-Mar-23 17:15S 21°29' W 164°38'1 0.3
2015-Mar-23 14:06S 21°29' W 164°37'2 0.7
2015-Mar-23 11:06S 21°29' W 164°39'0 0.0
2015-Mar-23 09:24S 21°29' W 164°39'1 4.4
2015-Mar-23 09:15S 21°29' W 164°40'2 0.9
2015-Mar-23 06:46S 21°27' W 164°42'0 0.0
2015-Mar-23 04:59S 21°27' W 164°42'0 0.0
2015-Mar-23 04:54S 21°27' W 164°42'1 0.8
2015-Mar-23 04:14S 21°27' W 164°42'1 0.9
2015-Mar-23 03:15S 21°27' W 164°42'117.0
2015-Mar-23 03:11S 21°26' W 164°42'  
Track history (hours):
 
Tides and Currents Weather Stations Pressure Air Temp Water Temp Dewpoint Dewpoint Depression Visibility Wind Speed Wind Dir Waves Ship Positions

Aadnyj

Last reported at 2015-Apr-02 03:02 UTC. Time now 2015-Apr-02 04:26 UTC.
Position S 21°50' W 164°21'.

Length 56 m.

Type: Towing. MMSI: 413600286.

Date/timePositionNaut miles runAvg speedWind from/ knotsBaromVisibWave heightAir tempDewpointWater temp
2015-Apr-02 03:02S 21°50' W 164°21'0 0.0
2015-Apr-01 20:50S 21°50' W 164°21'1 0.4
2015-Apr-01 19:08S 21°50' W 164°22'1 0.6
2015-Apr-01 18:12S 21°50' W 164°22'1 0.4
2015-Apr-01 15:57S 21°50' W 164°21'0 0.0
2015-Apr-01 15:48S 21°50' W 164°21'1 0.9
2015-Apr-01 15:02S 21°50' W 164°21'2 2.1
2015-Apr-01 14:04S 21°48' W 164°22'0 0.0
2015-Apr-01 12:51S 21°48' W 164°22'1 0.4
2015-Apr-01 11:06S 21°49' W 164°21'0 0.0
2015-Apr-01 09:38S 21°49' W 164°21'1 4.2
2015-Apr-01 09:30S 21°48' W 164°22'0 0.0
2015-Apr-01 08:45S 21°48' W 164°22'2 2.6
2015-Apr-01 07:57S 21°48' W 164°20'0 0.0
2015-Apr-01 06:58S 21°48' W 164°20'0 0.0
2015-Apr-01 05:11S 21°48' W 164°20'1 0.4
2015-Apr-01 03:55S 21°48' W 164°20'4 0.3
2015-Mar-31 14:15S 21°49' W 164°16'1 1.0
2015-Mar-31 12:56S 21°49' W 164°18'0 0.1
2015-Mar-31 11:15S 21°49' W 164°18'1 0.5
2015-Mar-31 09:04S 21°50' W 164°18'1 1.3
2015-Mar-31 08:16S 21°51' W 164°20'1 0.7
2015-Mar-31 07:23S 21°50' W 164°20'2 0.6
2015-Mar-31 04:43S 21°49' W 164°19'117.8
2015-Mar-31 04:39S 21°48' W 164°21'0 0.0
2015-Mar-31 04:15S 21°48' W 164°21'0 0.0
2015-Mar-31 04:06S 21°48' W 164°21'1 0.9
2015-Mar-31 03:02S 21°48' W 164°20'0 0.3
2015-Mar-31 01:47S 21°47' W 164°20'0 0.7
2015-Mar-31 01:42S 21°47' W 164°19'1 0.9
2015-Mar-31 00:04S 21°46' W 164°19'1 0.4
2015-Mar-30 21:29S 21°45' W 164°18'1 0.7
2015-Mar-30 20:33S 21°45' W 164°18'1 1.0
2015-Mar-30 19:52S 21°45' W 164°17'0 0.8
2015-Mar-30 19:48S 21°45' W 164°17'1 0.6
2015-Mar-30 18:57S 21°45' W 164°17'0 6.1
2015-Mar-30 18:54S 21°44' W 164°17'1 0.5
2015-Mar-30 17:01S 21°44' W 164°16'1 0.8
2015-Mar-30 16:05S 21°44' W 164°15'0 1.2
2015-Mar-30 15:50S 21°44' W 164°15'1 0.6
2015-Mar-30 14:49S 21°45' W 164°15'0 0.4
2015-Mar-30 14:28S 21°45' W 164°15'1 0.5
2015-Mar-30 13:13S 21°45' W 164°14'0 0.8
2015-Mar-30 13:09S 21°45' W 164°14'0 2.3
2015-Mar-30 13:01S 21°45' W 164°14'0 0.0
2015-Mar-30 11:29S 21°45' W 164°14'1 0.3
2015-Mar-30 08:40S 21°46' W 164°15'0 3.3
2015-Mar-30 08:39S 21°46' W 164°15'0 0.4
2015-Mar-30 07:46S 21°46' W 164°15'1 0.3
2015-Mar-30 04:51S 21°47' W 164°14'111.3
2015-Mar-30 04:46S 21°46' W 164°15'0 0.0
2015-Mar-30 04:36S 21°46' W 164°15'1 0.6
2015-Mar-30 03:13S 21°47' W 164°15'1 5.6
2015-Mar-30 03:04S 21°46' W 164°15'1 6.4
2015-Mar-30 02:56S 21°47' W 164°15'0 0.0
2015-Mar-30 01:57S 21°47' W 164°15'1 9.2
2015-Mar-30 01:53S 21°47' W 164°15'0 0.0
2015-Mar-30 00:15S 21°47' W 164°15'1 0.4
2015-Mar-29 21:51S 21°46' W 164°16'1 9.6
2015-Mar-29 21:45S 21°45' W 164°16'0 0.0
2015-Mar-29 20:52S 21°45' W 164°16'0 0.1
2015-Mar-29 20:13S 21°45' W 164°16'0 0.0
2015-Mar-29 20:07S 21°45' W 164°16'0 0.1
2015-Mar-29 19:16S 21°45' W 164°16'0 1.7
2015-Mar-29 19:14S 21°45' W 164°16'0 0.0
2015-Mar-29 19:07S 21°45' W 164°16'1 0.8
2015-Mar-29 17:31S 21°44' W 164°16'1 0.5
2015-Mar-29 16:22S 21°43' W 164°15'1 1.2
2015-Mar-29 15:51S 21°43' W 164°15'1 0.6
2015-Mar-29 14:39S 21°43' W 164°14'1 0.9
2015-Mar-29 13:24S 21°43' W 164°13'0 1.2
2015-Mar-29 13:16S 21°43' W 164°13'1 0.4
2015-Mar-29 11:40S 21°43' W 164°12'1 0.5
2015-Mar-29 09:47S 21°43' W 164°11'1 1.0
2015-Mar-29 08:59S 21°43' W 164°11'0 0.0
2015-Mar-29 08:58S 21°43' W 164°11'0 0.1
2015-Mar-29 08:06S 21°43' W 164°11'2 2.3
2015-Mar-29 07:14S 21°44' W 164°09'0 0.0
2015-Mar-29 05:11S 21°44' W 164°09'0 2.7
2015-Mar-29 05:07S 21°44' W 164°08'0 0.0
2015-Mar-29 05:02S 21°44' W 164°08'1 0.8
2015-Mar-29 03:27S 21°45' W 164°07'1 1.0
2015-Mar-29 02:08S 21°46' W 164°07'0 0.0
2015-Mar-29 02:04S 21°46' W 164°07'2 0.9
2015-Mar-29 00:28S 21°47' W 164°08'0 0.1
2015-Mar-28 20:30S 21°48' W 164°08'010.0
2015-Mar-28 20:29S 21°48' W 164°08'1 0.6
2015-Mar-28 19:36S 21°48' W 164°08'0 0.3
2015-Mar-28 18:03S 21°48' W 164°09'1 0.4
2015-Mar-28 16:30S 21°47' W 164°09'0 0.6
2015-Mar-28 16:24S 21°47' W 164°09'1 0.6
2015-Mar-28 15:02S 21°48' W 164°10'0 0.3
2015-Mar-28 14:51S 21°48' W 164°10'0 0.2
2015-Mar-28 13:30S 21°48' W 164°10'0 0.0
2015-Mar-28 13:29S 21°48' W 164°10'1 0.6
2015-Mar-28 11:53S 21°48' W 164°11'1 0.4
2015-Mar-28 10:07S 21°48' W 164°12'212.9
2015-Mar-28 10:00S 21°47' W 164°13'1 0.9
2015-Mar-28 09:16S 21°47' W 164°12'0 0.0
2015-Mar-28 08:30S 21°47' W 164°12'0 4.5
2015-Mar-28 08:25S 21°47' W 164°13'2 2.6
2015-Mar-28 07:34S 21°46' W 164°15'1 0.3
2015-Mar-28 05:14S 21°45' W 164°15'0 0.3
2015-Mar-28 04:03S 21°45' W 164°15'0 2.4
2015-Mar-28 04:00S 21°45' W 164°15'0 0.0
2015-Mar-28 03:55S 21°45' W 164°15'0 0.3
2015-Mar-28 03:31S 21°45' W 164°16'111.9
2015-Mar-28 03:26S 21°44' W 164°15'0 0.0
2015-Mar-28 02:16S 21°44' W 164°15'0 0.0
2015-Mar-28 02:15S 21°44' W 164°15'0 0.1
2015-Mar-28 00:38S 21°44' W 164°15'0 0.1
2015-Mar-27 20:54S 21°44' W 164°15'0 1.8
2015-Mar-27 20:48S 21°44' W 164°15'1 0.7
2015-Mar-27 19:56S 21°44' W 164°15'0 0.3
2015-Mar-27 19:11S 21°44' W 164°15'0 0.1
2015-Mar-27 18:16S 21°44' W 164°15'0 0.3
2015-Mar-27 17:09S 21°44' W 164°15'0 1.5
2015-Mar-27 16:55S 21°44' W 164°16'0 1.8
2015-Mar-27 16:44S 21°43' W 164°15'0 0.3
2015-Mar-27 15:05S 21°44' W 164°15'0 1.6
2015-Mar-27 15:02S 21°44' W 164°15'1 2.9
2015-Mar-27 14:51S 21°44' W 164°15'0 0.0
2015-Mar-27 13:47S 21°44' W 164°15'1 0.6
2015-Mar-27 12:07S 21°45' W 164°15'0 2.6
2015-Mar-27 12:04S 21°45' W 164°15'1 0.7
2015-Mar-27 10:26S 21°46' W 164°16'2 1.1
2015-Mar-27 08:50S 21°46' W 164°18'0 0.0
2015-Mar-27 08:47S 21°46' W 164°18'0 0.0
2015-Mar-27 08:02S 21°46' W 164°18'1 1.1
2015-Mar-27 07:06S 21°45' W 164°18'2 0.9
2015-Mar-27 05:25S 21°46' W 164°20'2 1.6
2015-Mar-27 04:29S 21°45' W 164°21'0 1.6
2015-Mar-27 04:16S 21°45' W 164°21'013.5
2015-Mar-27 04:14S 21°45' W 164°22'1 0.4
2015-Mar-27 02:27S 21°44' W 164°22'1 0.7
2015-Mar-27 00:51S 21°43' W 164°23'0 0.0
2015-Mar-27 00:49S 21°43' W 164°23'2 0.4
2015-Mar-26 20:17S 21°41' W 164°22'2 0.3
2015-Mar-26 15:13S 21°40' W 164°21'1 0.2
2015-Mar-26 12:15S 21°40' W 164°20'2 0.5
2015-Mar-26 09:10S 21°41' W 164°20'1 9.8
2015-Mar-26 09:05S 21°42' W 164°20'1 0.3
2015-Mar-26 05:01S 21°43' W 164°21'2 2.1
2015-Mar-26 04:02S 21°43' W 164°23'0 0.0
2015-Mar-26 03:59S 21°43' W 164°23'2 2.2
2015-Mar-26 03:03S 21°42' W 164°22'2 2.1
2015-Mar-26 02:15S 21°43' W 164°23'4 0.7
2015-Mar-25 20:37S 21°41' W 164°27'1 0.8
2015-Mar-25 19:55S 21°41' W 164°27'0 0.2
2015-Mar-25 19:01S 21°41' W 164°27'0 3.8
2015-Mar-25 18:58S 21°41' W 164°27'2 1.3
2015-Mar-25 17:06S 21°39' W 164°29'0 0.2
2015-Mar-25 16:16S 21°39' W 164°29'0 0.5
2015-Mar-25 15:28S 21°39' W 164°29'0 0.0
2015-Mar-25 15:24S 21°39' W 164°29'0 0.0
2015-Mar-25 15:16S 21°39' W 164°29'0 0.0
2015-Mar-25 14:36S 21°39' W 164°29'1 1.5
2015-Mar-25 14:09S 21°39' W 164°28'2 1.0
2015-Mar-25 12:25S 21°38' W 164°30'1 4.7
2015-Mar-25 12:16S 21°37' W 164°30'0 0.0
2015-Mar-25 10:15S 21°37' W 164°30'1 0.5
2015-Mar-25 07:50S 21°36' W 164°31'0 0.4
2015-Mar-25 06:55S 21°36' W 164°31'0 0.1
2015-Mar-25 05:49S 21°36' W 164°31'1 0.7
2015-Mar-25 04:13S 21°35' W 164°30'0 0.0
2015-Mar-25 04:09S 21°35' W 164°30'0 1.5
2015-Mar-25 03:57S 21°35' W 164°30'0 4.2
2015-Mar-25 03:54S 21°35' W 164°30'1 2.3
2015-Mar-25 03:29S 21°36' W 164°29'1 1.2
2015-Mar-25 02:50S 21°36' W 164°30'0 0.0
2015-Mar-25 02:29S 21°36' W 164°30'0 0.0
2015-Mar-25 01:11S 21°36' W 164°30'3 0.7
2015-Mar-24 20:51S 21°36' W 164°33'0 0.2
2015-Mar-24 20:10S 21°36' W 164°33'2 0.4
2015-Mar-24 14:59S 21°34' W 164°34'1 0.2
2015-Mar-24 09:01S 21°34' W 164°35'1 0.8
2015-Mar-24 08:10S 21°33' W 164°36'2 0.7
2015-Mar-24 06:00S 21°32' W 164°37'0 0.0
2015-Mar-24 04:28S 21°32' W 164°37'3 0.3
2015-Mar-23 18:58S 21°30' W 164°38'0 0.0
2015-Mar-23 18:53S 21°30' W 164°38'1 0.6
2015-Mar-23 17:15S 21°29' W 164°38'1 0.3
2015-Mar-23 14:06S 21°29' W 164°37'2 0.7
2015-Mar-23 11:06S 21°29' W 164°39'0 0.0
2015-Mar-23 09:24S 21°29' W 164°39'1 4.4
2015-Mar-23 09:15S 21°29' W 164°40'2 0.9
2015-Mar-23 06:46S 21°27' W 164°42'0 0.0
2015-Mar-23 04:59S 21°27' W 164°42'0 0.0
2015-Mar-23 04:54S 21°27' W 164°42'1 0.8
2015-Mar-23 04:14S 21°27' W 164°42'1 0.9
2015-Mar-23 03:15S 21°27' W 164°42'117.0
2015-Mar-23 03:11S 21°26' W 164°42'  

Dump ship's entire track history